sensor_id;sensor_type;location;lat;lon;timestamp;P1;durP1;ratioP1;P2;durP2;ratioP2
23171;SDS011;11754;42.664;23.594;2024-03-23T00:54:20;41.97;;;21.77;;
23171;SDS011;11754;42.664;23.594;2024-03-23T00:56:45;36.95;;;21.10;;
23171;SDS011;11754;42.664;23.594;2024-03-23T00:59:11;33.97;;;22.20;;
23171;SDS011;11754;42.664;23.594;2024-03-23T01:01:36;42.80;;;26.83;;
23171;SDS011;11754;42.664;23.594;2024-03-23T01:04:02;42.45;;;29.00;;
23171;SDS011;11754;42.664;23.594;2024-03-23T01:06:28;41.20;;;25.80;;
23171;SDS011;11754;42.664;23.594;2024-03-23T01:08:53;35.85;;;24.10;;
23171;SDS011;11754;42.664;23.594;2024-03-23T01:11:19;32.17;;;20.38;;
23171;SDS011;11754;42.664;23.594;2024-03-23T01:13:44;27.85;;;17.85;;
23171;SDS011;11754;42.664;23.594;2024-03-23T01:16:09;25.20;;;15.57;;
23171;SDS011;11754;42.664;23.594;2024-03-23T01:18:35;24.50;;;16.73;;
23171;SDS011;11754;42.664;23.594;2024-03-23T01:21:00;26.98;;;15.65;;
23171;SDS011;11754;42.664;23.594;2024-03-23T01:23:26;26.33;;;14.00;;
23171;SDS011;11754;42.664;23.594;2024-03-23T01:25:51;28.65;;;13.57;;
23171;SDS011;11754;42.664;23.594;2024-03-23T01:28:19;23.08;;;12.30;;
23171;SDS011;11754;42.664;23.594;2024-03-23T01:30:45;24.83;;;12.27;;
23171;SDS011;11754;42.664;23.594;2024-03-23T01:33:11;22.58;;;12.02;;
23171;SDS011;11754;42.664;23.594;2024-03-23T01:35:36;24.05;;;12.60;;
23171;SDS011;11754;42.664;23.594;2024-03-23T01:38:02;21.27;;;11.90;;
23171;SDS011;11754;42.664;23.594;2024-03-23T01:40:27;20.88;;;11.88;;
23171;SDS011;11754;42.664;23.594;2024-03-23T01:43:06;21.15;;;12.75;;
23171;SDS011;11754;42.664;23.594;2024-03-23T01:45:33;23.52;;;12.20;;
23171;SDS011;11754;42.664;23.594;2024-03-23T01:47:59;21.70;;;10.43;;
23171;SDS011;11754;42.664;23.594;2024-03-23T01:50:25;19.85;;;10.32;;
23171;SDS011;11754;42.664;23.594;2024-03-23T01:52:52;17.98;;;10.35;;
23171;SDS011;11754;42.664;23.594;2024-03-23T01:55:18;17.92;;;10.45;;
23171;SDS011;11754;42.664;23.594;2024-03-23T01:57:44;22.85;;;10.52;;
23171;SDS011;11754;42.664;23.594;2024-03-23T02:00:10;16.15;;;9.45;;
23171;SDS011;11754;42.664;23.594;2024-03-23T02:02:41;16.58;;;9.18;;
23171;SDS011;11754;42.664;23.594;2024-03-23T02:05:08;15.88;;;9.05;;
23171;SDS011;11754;42.664;23.594;2024-03-23T02:07:33;13.15;;;8.25;;
23171;SDS011;11754;42.664;23.594;2024-03-23T02:09:59;16.02;;;8.85;;
23171;SDS011;11754;42.664;23.594;2024-03-23T02:12:26;15.25;;;8.60;;
23171;SDS011;11754;42.664;23.594;2024-03-23T02:14:51;15.13;;;8.82;;
23171;SDS011;11754;42.664;23.594;2024-03-23T02:17:16;21.98;;;13.30;;
23171;SDS011;11754;42.664;23.594;2024-03-23T02:19:42;24.38;;;15.63;;
23171;SDS011;11754;42.664;23.594;2024-03-23T02:22:07;26.42;;;16.17;;
23171;SDS011;11754;42.664;23.594;2024-03-23T02:24:35;28.15;;;15.52;;
23171;SDS011;11754;42.664;23.594;2024-03-23T02:27:02;23.90;;;14.82;;
23171;SDS011;11754;42.664;23.594;2024-03-23T02:29:28;17.55;;;10.43;;
23171;SDS011;11754;42.664;23.594;2024-03-23T02:31:53;15.18;;;9.55;;
23171;SDS011;11754;42.664;23.594;2024-03-23T02:34:18;18.73;;;9.60;;
23171;SDS011;11754;42.664;23.594;2024-03-23T02:36:44;17.17;;;9.77;;
23171;SDS011;11754;42.664;23.594;2024-03-23T02:39:09;16.10;;;10.02;;
23171;SDS011;11754;42.664;23.594;2024-03-23T02:41:35;19.48;;;10.07;;
23171;SDS011;11754;42.664;23.594;2024-03-23T02:44:01;19.48;;;9.75;;
23171;SDS011;11754;42.664;23.594;2024-03-23T02:46:27;17.33;;;8.63;;
23171;SDS011;11754;42.664;23.594;2024-03-23T02:48:52;22.40;;;10.07;;
23171;SDS011;11754;42.664;23.594;2024-03-23T02:51:17;21.67;;;9.90;;
23171;SDS011;11754;42.664;23.594;2024-03-23T02:53:43;18.00;;;9.10;;
23171;SDS011;11754;42.664;23.594;2024-03-23T02:56:08;18.88;;;10.00;;
23171;SDS011;11754;42.664;23.594;2024-03-23T02:58:34;14.88;;;9.52;;
23171;SDS011;11754;42.664;23.594;2024-03-23T03:00:59;19.08;;;9.80;;
23171;SDS011;11754;42.664;23.594;2024-03-23T03:03:25;18.30;;;10.35;;
23171;SDS011;11754;42.664;23.594;2024-03-23T03:05:56;19.38;;;9.88;;
23171;SDS011;11754;42.664;23.594;2024-03-23T03:08:22;19.55;;;10.35;;
23171;SDS011;11754;42.664;23.594;2024-03-23T03:10:47;18.98;;;10.20;;
23171;SDS011;11754;42.664;23.594;2024-03-23T03:13:13;14.60;;;8.65;;
23171;SDS011;11754;42.664;23.594;2024-03-23T03:15:39;14.57;;;8.52;;
23171;SDS011;11754;42.664;23.594;2024-03-23T03:18:08;16.42;;;8.65;;
23171;SDS011;11754;42.664;23.594;2024-03-23T03:20:34;17.45;;;9.32;;
23171;SDS011;11754;42.664;23.594;2024-03-23T03:23:04;16.65;;;8.63;;
23171;SDS011;11754;42.664;23.594;2024-03-23T03:25:29;16.98;;;9.13;;
23171;SDS011;11754;42.664;23.594;2024-03-23T03:27:55;18.02;;;9.60;;
23171;SDS011;11754;42.664;23.594;2024-03-23T03:30:20;19.50;;;10.95;;
23171;SDS011;11754;42.664;23.594;2024-03-23T03:32:46;17.45;;;9.57;;
23171;SDS011;11754;42.664;23.594;2024-03-23T03:35:11;15.60;;;8.52;;
23171;SDS011;11754;42.664;23.594;2024-03-23T03:37:36;15.73;;;8.20;;
23171;SDS011;11754;42.664;23.594;2024-03-23T03:40:02;13.05;;;7.72;;
23171;SDS011;11754;42.664;23.594;2024-03-23T03:42:28;16.60;;;8.32;;
23171;SDS011;11754;42.664;23.594;2024-03-23T03:44:53;18.05;;;8.45;;
23171;SDS011;11754;42.664;23.594;2024-03-23T03:47:19;19.25;;;8.73;;
23171;SDS011;11754;42.664;23.594;2024-03-23T03:49:44;14.35;;;8.85;;
23171;SDS011;11754;42.664;23.594;2024-03-23T03:52:10;17.75;;;9.18;;
23171;SDS011;11754;42.664;23.594;2024-03-23T03:54:36;18.33;;;8.98;;
23171;SDS011;11754;42.664;23.594;2024-03-23T03:57:01;17.40;;;10.05;;
23171;SDS011;11754;42.664;23.594;2024-03-23T03:59:27;16.88;;;9.13;;
23171;SDS011;11754;42.664;23.594;2024-03-23T04:01:52;18.52;;;9.75;;
23171;SDS011;11754;42.664;23.594;2024-03-23T04:04:17;18.92;;;10.93;;
23171;SDS011;11754;42.664;23.594;2024-03-23T04:06:43;18.10;;;10.48;;
23171;SDS011;11754;42.664;23.594;2024-03-23T04:09:09;21.88;;;11.60;;
23171;SDS011;11754;42.664;23.594;2024-03-23T04:11:35;27.90;;;13.45;;
23171;SDS011;11754;42.664;23.594;2024-03-23T04:14:00;29.63;;;12.80;;
23171;SDS011;11754;42.664;23.594;2024-03-23T04:16:34;22.23;;;12.43;;
23171;SDS011;11754;42.664;23.594;2024-03-23T04:19:01;22.55;;;11.65;;
23171;SDS011;11754;42.664;23.594;2024-03-23T04:21:27;20.48;;;10.68;;
23171;SDS011;11754;42.664;23.594;2024-03-23T04:23:52;19.08;;;10.85;;
23171;SDS011;11754;42.664;23.594;2024-03-23T04:26:17;20.45;;;9.98;;
23171;SDS011;11754;42.664;23.594;2024-03-23T04:28:43;17.38;;;10.38;;
23171;SDS011;11754;42.664;23.594;2024-03-23T04:31:09;18.95;;;9.95;;
23171;SDS011;11754;42.664;23.594;2024-03-23T04:33:34;17.30;;;10.20;;
23171;SDS011;11754;42.664;23.594;2024-03-23T04:35:59;24.05;;;12.05;;
23171;SDS011;11754;42.664;23.594;2024-03-23T04:38:25;28.83;;;12.13;;
23171;SDS011;11754;42.664;23.594;2024-03-23T04:41:08;24.73;;;11.32;;
23171;SDS011;11754;42.664;23.594;2024-03-23T04:43:34;22.85;;;11.43;;
23171;SDS011;11754;42.664;23.594;2024-03-23T04:45:59;19.52;;;11.07;;
23171;SDS011;11754;42.664;23.594;2024-03-23T04:48:24;21.50;;;11.82;;
23171;SDS011;11754;42.664;23.594;2024-03-23T04:50:54;16.33;;;9.48;;
23171;SDS011;11754;42.664;23.594;2024-03-23T04:53:22;19.17;;;9.73;;
23171;SDS011;11754;42.664;23.594;2024-03-23T04:55:52;22.65;;;10.43;;
23171;SDS011;11754;42.664;23.594;2024-03-23T04:58:18;18.45;;;10.70;;
23171;SDS011;11754;42.664;23.594;2024-03-23T05:00:43;21.73;;;10.68;;
23171;SDS011;11754;42.664;23.594;2024-03-23T05:03:09;19.67;;;10.25;;
23171;SDS011;11754;42.664;23.594;2024-03-23T05:05:34;21.17;;;10.40;;
23171;SDS011;11754;42.664;23.594;2024-03-23T05:08:00;19.40;;;10.23;;
23171;SDS011;11754;42.664;23.594;2024-03-23T05:10:25;17.52;;;10.07;;
23171;SDS011;11754;42.664;23.594;2024-03-23T05:12:51;67.70;;;33.88;;
23171;SDS011;11754;42.664;23.594;2024-03-23T05:15:16;86.55;;;37.72;;
23171;SDS011;11754;42.664;23.594;2024-03-23T05:17:42;58.03;;;27.83;;
23171;SDS011;11754;42.664;23.594;2024-03-23T05:20:07;40.40;;;22.02;;
23171;SDS011;11754;42.664;23.594;2024-03-23T05:22:35;33.92;;;20.60;;
23171;SDS011;11754;42.664;23.594;2024-03-23T05:25:01;50.85;;;24.35;;
23171;SDS011;11754;42.664;23.594;2024-03-23T05:27:29;29.67;;;12.38;;
23171;SDS011;11754;42.664;23.594;2024-03-23T05:29:55;20.98;;;11.10;;
23171;SDS011;11754;42.664;23.594;2024-03-23T05:32:20;20.58;;;11.52;;
23171;SDS011;11754;42.664;23.594;2024-03-23T05:34:46;22.88;;;11.98;;
23171;SDS011;11754;42.664;23.594;2024-03-23T05:37:11;17.48;;;10.55;;
23171;SDS011;11754;42.664;23.594;2024-03-23T05:39:36;18.48;;;11.43;;
23171;SDS011;11754;42.664;23.594;2024-03-23T05:42:02;15.57;;;9.00;;
23171;SDS011;11754;42.664;23.594;2024-03-23T05:44:27;11.57;;;7.65;;
23171;SDS011;11754;42.664;23.594;2024-03-23T05:46:53;15.93;;;8.60;;
23171;SDS011;11754;42.664;23.594;2024-03-23T05:49:18;25.38;;;9.38;;
23171;SDS011;11754;42.664;23.594;2024-03-23T05:51:45;18.92;;;8.80;;
23171;SDS011;11754;42.664;23.594;2024-03-23T05:54:10;20.95;;;9.60;;
23171;SDS011;11754;42.664;23.594;2024-03-23T05:56:35;19.10;;;10.20;;
23171;SDS011;11754;42.664;23.594;2024-03-23T05:59:01;16.70;;;8.90;;
23171;SDS011;11754;42.664;23.594;2024-03-23T06:01:28;14.45;;;7.72;;
23171;SDS011;11754;42.664;23.594;2024-03-23T06:03:54;157.75;;;55.95;;
23171;SDS011;11754;42.664;23.594;2024-03-23T06:06:19;124.68;;;44.33;;
23171;SDS011;11754;42.664;23.594;2024-03-23T06:08:44;41.63;;;13.93;;
23171;SDS011;11754;42.664;23.594;2024-03-23T06:11:10;38.38;;;14.35;;
23171;SDS011;11754;42.664;23.594;2024-03-23T06:13:35;32.88;;;12.88;;
23171;SDS011;11754;42.664;23.594;2024-03-23T06:16:01;41.97;;;15.77;;
23171;SDS011;11754;42.664;23.594;2024-03-23T06:18:26;58.38;;;19.38;;
23171;SDS011;11754;42.664;23.594;2024-03-23T06:20:53;68.20;;;18.95;;
23171;SDS011;11754;42.664;23.594;2024-03-23T06:23:18;31.55;;;12.70;;
23171;SDS011;11754;42.664;23.594;2024-03-23T06:25:45;27.23;;;11.57;;
23171;SDS011;11754;42.664;23.594;2024-03-23T06:28:11;32.25;;;14.20;;
23171;SDS011;11754;42.664;23.594;2024-03-23T06:30:37;22.20;;;11.63;;
23171;SDS011;11754;42.664;23.594;2024-03-23T06:33:02;17.20;;;9.43;;
23171;SDS011;11754;42.664;23.594;2024-03-23T06:35:28;16.67;;;9.02;;
23171;SDS011;11754;42.664;23.594;2024-03-23T06:37:53;17.13;;;9.82;;
23171;SDS011;11754;42.664;23.594;2024-03-23T06:40:18;17.67;;;10.02;;
23171;SDS011;11754;42.664;23.594;2024-03-23T06:42:44;17.52;;;9.93;;
23171;SDS011;11754;42.664;23.594;2024-03-23T06:45:09;16.27;;;9.13;;
23171;SDS011;11754;42.664;23.594;2024-03-23T06:47:35;18.00;;;9.90;;
23171;SDS011;11754;42.664;23.594;2024-03-23T06:50:02;17.13;;;9.35;;
23171;SDS011;11754;42.664;23.594;2024-03-23T06:52:28;19.35;;;10.32;;
23171;SDS011;11754;42.664;23.594;2024-03-23T06:54:54;15.85;;;10.32;;
23171;SDS011;11754;42.664;23.594;2024-03-23T06:57:20;13.25;;;9.35;;
23171;SDS011;11754;42.664;23.594;2024-03-23T06:59:45;14.20;;;9.25;;
23171;SDS011;11754;42.664;23.594;2024-03-23T07:02:10;14.88;;;9.73;;
23171;SDS011;11754;42.664;23.594;2024-03-23T07:04:36;21.10;;;9.95;;
23171;SDS011;11754;42.664;23.594;2024-03-23T07:07:02;15.07;;;9.23;;
23171;SDS011;11754;42.664;23.594;2024-03-23T07:16:29;18.10;;;10.05;;
23171;SDS011;11754;42.664;23.594;2024-03-23T07:18:55;17.80;;;10.32;;
23171;SDS011;11754;42.664;23.594;2024-03-23T07:21:21;19.45;;;11.93;;
23171;SDS011;11754;42.664;23.594;2024-03-23T07:23:47;19.52;;;11.48;;
23171;SDS011;11754;42.664;23.594;2024-03-23T07:26:12;18.83;;;12.20;;
23171;SDS011;11754;42.664;23.594;2024-03-23T07:28:38;21.52;;;10.82;;
23171;SDS011;11754;42.664;23.594;2024-03-23T07:31:09;17.17;;;10.90;;
23171;SDS011;11754;42.664;23.594;2024-03-23T07:33:43;16.92;;;10.93;;
23171;SDS011;11754;42.664;23.594;2024-03-23T07:36:10;22.77;;;11.07;;
23171;SDS011;11754;42.664;23.594;2024-03-23T07:38:36;16.38;;;11.40;;
23171;SDS011;11754;42.664;23.594;2024-03-23T07:41:02;21.17;;;11.60;;
23171;SDS011;11754;42.664;23.594;2024-03-23T07:43:31;26.55;;;11.35;;
23171;SDS011;11754;42.664;23.594;2024-03-23T07:45:57;16.65;;;10.30;;
23171;SDS011;11754;42.664;23.594;2024-03-23T07:48:23;20.30;;;11.05;;
23171;SDS011;11754;42.664;23.594;2024-03-23T07:51:04;16.77;;;10.85;;
23171;SDS011;11754;42.664;23.594;2024-03-23T07:53:34;19.27;;;10.23;;
23171;SDS011;11754;42.664;23.594;2024-03-23T07:56:09;15.10;;;9.68;;
23171;SDS011;11754;42.664;23.594;2024-03-23T07:58:35;13.45;;;9.18;;
23171;SDS011;11754;42.664;23.594;2024-03-23T08:01:08;12.65;;;8.90;;
23171;SDS011;11754;42.664;23.594;2024-03-23T08:03:36;14.40;;;9.25;;
23171;SDS011;11754;42.664;23.594;2024-03-23T08:08:37;17.70;;;9.65;;
23171;SDS011;11754;42.664;23.594;2024-03-23T08:11:03;16.25;;;9.15;;
23171;SDS011;11754;42.664;23.594;2024-03-23T08:13:29;15.85;;;8.93;;
23171;SDS011;11754;42.664;23.594;2024-03-23T08:15:58;16.95;;;9.30;;
23171;SDS011;11754;42.664;23.594;2024-03-23T08:18:25;14.25;;;9.23;;
23171;SDS011;11754;42.664;23.594;2024-03-23T08:21:00;15.05;;;8.98;;
23171;SDS011;11754;42.664;23.594;2024-03-23T08:23:27;13.80;;;10.23;;
23171;SDS011;11754;42.664;23.594;2024-03-23T08:26:00;15.13;;;9.38;;
23171;SDS011;11754;42.664;23.594;2024-03-23T08:28:26;17.17;;;9.68;;
23171;SDS011;11754;42.664;23.594;2024-03-23T08:30:52;16.83;;;9.65;;
23171;SDS011;11754;42.664;23.594;2024-03-23T08:33:19;13.50;;;10.18;;
23171;SDS011;11754;42.664;23.594;2024-03-23T08:38:20;14.52;;;9.45;;
23171;SDS011;11754;42.664;23.594;2024-03-23T08:40:46;13.10;;;8.85;;
23171;SDS011;11754;42.664;23.594;2024-03-23T08:43:11;12.68;;;8.75;;
23171;SDS011;11754;42.664;23.594;2024-03-23T08:45:36;17.90;;;8.93;;
23171;SDS011;11754;42.664;23.594;2024-03-23T08:48:02;17.38;;;8.57;;
23171;SDS011;11754;42.664;23.594;2024-03-23T08:50:27;12.60;;;7.90;;
23171;SDS011;11754;42.664;23.594;2024-03-23T08:52:53;12.43;;;8.35;;
23171;SDS011;11754;42.664;23.594;2024-03-23T08:55:18;12.52;;;9.32;;
23171;SDS011;11754;42.664;23.594;2024-03-23T08:57:44;11.15;;;8.57;;
23171;SDS011;11754;42.664;23.594;2024-03-23T09:00:09;13.73;;;8.35;;
23171;SDS011;11754;42.664;23.594;2024-03-23T09:02:36;12.20;;;8.55;;
23171;SDS011;11754;42.664;23.594;2024-03-23T09:05:02;12.60;;;8.23;;
23171;SDS011;11754;42.664;23.594;2024-03-23T09:07:32;13.75;;;9.00;;
23171;SDS011;11754;42.664;23.594;2024-03-23T09:09:57;12.43;;;8.40;;
23171;SDS011;11754;42.664;23.594;2024-03-23T09:12:23;11.55;;;8.27;;
23171;SDS011;11754;42.664;23.594;2024-03-23T09:14:49;10.80;;;7.90;;
23171;SDS011;11754;42.664;23.594;2024-03-23T09:17:15;11.45;;;7.65;;
23171;SDS011;11754;42.664;23.594;2024-03-23T09:19:40;10.10;;;7.15;;
23171;SDS011;11754;42.664;23.594;2024-03-23T09:22:06;11.07;;;7.75;;
23171;SDS011;11754;42.664;23.594;2024-03-23T09:24:31;8.63;;;7.05;;
23171;SDS011;11754;42.664;23.594;2024-03-23T09:26:57;9.15;;;7.13;;
23171;SDS011;11754;42.664;23.594;2024-03-23T09:29:22;13.50;;;7.25;;
23171;SDS011;11754;42.664;23.594;2024-03-23T09:31:48;11.38;;;7.10;;
23171;SDS011;11754;42.664;23.594;2024-03-23T09:34:13;8.30;;;6.53;;
23171;SDS011;11754;42.664;23.594;2024-03-23T09:36:39;13.15;;;6.57;;
23171;SDS011;11754;42.664;23.594;2024-03-23T09:39:04;15.82;;;6.35;;
23171;SDS011;11754;42.664;23.594;2024-03-23T09:41:31;13.30;;;6.68;;
23171;SDS011;11754;42.664;23.594;2024-03-23T09:43:56;8.00;;;6.43;;
23171;SDS011;11754;42.664;23.594;2024-03-23T09:46:22;10.77;;;4.95;;
23171;SDS011;11754;42.664;23.594;2024-03-23T09:48:48;6.22;;;4.50;;
23171;SDS011;11754;42.664;23.594;2024-03-23T09:51:13;12.95;;;4.50;;
23171;SDS011;11754;42.664;23.594;2024-03-23T09:53:39;7.68;;;4.25;;
23171;SDS011;11754;42.664;23.594;2024-03-23T09:56:04;6.95;;;4.10;;
23171;SDS011;11754;42.664;23.594;2024-03-23T09:58:30;5.35;;;3.97;;
23171;SDS011;11754;42.664;23.594;2024-03-23T10:00:57;9.40;;;3.90;;
23171;SDS011;11754;42.664;23.594;2024-03-23T10:03:23;8.38;;;3.40;;
23171;SDS011;11754;42.664;23.594;2024-03-23T10:05:48;8.32;;;3.40;;
23171;SDS011;11754;42.664;23.594;2024-03-23T10:08:25;5.93;;;3.28;;
23171;SDS011;11754;42.664;23.594;2024-03-23T10:10:53;5.28;;;2.97;;
23171;SDS011;11754;42.664;23.594;2024-03-23T10:13:25;7.68;;;3.10;;
23171;SDS011;11754;42.664;23.594;2024-03-23T10:15:58;3.80;;;2.75;;
23171;SDS011;11754;42.664;23.594;2024-03-23T10:18:25;6.32;;;2.72;;
23171;SDS011;11754;42.664;23.594;2024-03-23T10:23:30;4.93;;;2.03;;
23171;SDS011;11754;42.664;23.594;2024-03-23T10:26:18;8.10;;;2.20;;
23171;SDS011;11754;42.664;23.594;2024-03-23T10:28:54;3.83;;;1.95;;
23171;SDS011;11754;42.664;23.594;2024-03-23T10:31:21;3.97;;;1.90;;
23171;SDS011;11754;42.664;23.594;2024-03-23T10:33:46;6.40;;;2.20;;
23171;SDS011;11754;42.664;23.594;2024-03-23T10:36:13;4.78;;;2.10;;
23171;SDS011;11754;42.664;23.594;2024-03-23T10:38:42;3.88;;;2.00;;
23171;SDS011;11754;42.664;23.594;2024-03-23T10:41:09;4.93;;;2.10;;
23171;SDS011;11754;42.664;23.594;2024-03-23T10:43:35;4.93;;;2.13;;
23171;SDS011;11754;42.664;23.594;2024-03-23T10:46:02;7.00;;;2.17;;
23171;SDS011;11754;42.664;23.594;2024-03-23T10:48:29;3.38;;;2.00;;
23171;SDS011;11754;42.664;23.594;2024-03-23T10:50:54;4.05;;;1.92;;
23171;SDS011;11754;42.664;23.594;2024-03-23T10:53:21;3.58;;;1.83;;
23171;SDS011;11754;42.664;23.594;2024-03-23T10:55:50;4.73;;;1.70;;
23171;SDS011;11754;42.664;23.594;2024-03-23T10:58:16;3.40;;;1.52;;
23171;SDS011;11754;42.664;23.594;2024-03-23T11:00:46;3.38;;;1.77;;
23171;SDS011;11754;42.664;23.594;2024-03-23T11:03:30;6.10;;;2.17;;
23171;SDS011;11754;42.664;23.594;2024-03-23T11:05:57;2.72;;;1.60;;
23171;SDS011;11754;42.664;23.594;2024-03-23T11:08:36;2.75;;;1.60;;
23171;SDS011;11754;42.664;23.594;2024-03-23T11:11:12;3.03;;;1.58;;
23171;SDS011;11754;42.664;23.594;2024-03-23T11:13:40;3.13;;;1.40;;
23171;SDS011;11754;42.664;23.594;2024-03-23T11:16:21;3.42;;;1.65;;
23171;SDS011;11754;42.664;23.594;2024-03-23T11:18:49;3.78;;;2.42;;
23171;SDS011;11754;42.664;23.594;2024-03-23T11:24:19;4.82;;;2.10;;
23171;SDS011;11754;42.664;23.594;2024-03-23T11:26:46;4.53;;;2.08;;
23171;SDS011;11754;42.664;23.594;2024-03-23T11:29:12;6.55;;;2.38;;
23171;SDS011;11754;42.664;23.594;2024-03-23T11:31:38;3.08;;;1.60;;
23171;SDS011;11754;42.664;23.594;2024-03-23T11:34:10;8.65;;;1.92;;
23171;SDS011;11754;42.664;23.594;2024-03-23T11:36:35;2.88;;;1.35;;
23171;SDS011;11754;42.664;23.594;2024-03-23T11:39:11;5.15;;;1.60;;
23171;SDS011;11754;42.664;23.594;2024-03-23T11:41:59;2.65;;;1.30;;
23171;SDS011;11754;42.664;23.594;2024-03-23T11:44:25;4.18;;;1.38;;
23171;SDS011;11754;42.664;23.594;2024-03-23T11:46:53;1.63;;;1.17;;
23171;SDS011;11754;42.664;23.594;2024-03-23T11:49:28;7.00;;;1.60;;
23171;SDS011;11754;42.664;23.594;2024-03-23T11:51:54;8.32;;;2.17;;
23171;SDS011;11754;42.664;23.594;2024-03-23T11:54:24;11.65;;;7.20;;
23171;SDS011;11754;42.664;23.594;2024-03-23T11:57:00;17.88;;;7.65;;
23171;SDS011;11754;42.664;23.594;2024-03-23T12:01:57;33.92;;;21.10;;
23171;SDS011;11754;42.664;23.594;2024-03-23T12:04:27;11.95;;;7.35;;
23171;SDS011;11754;42.664;23.594;2024-03-23T12:07:08;15.38;;;7.80;;
23171;SDS011;11754;42.664;23.594;2024-03-23T12:09:44;6.15;;;3.28;;
23171;SDS011;11754;42.664;23.594;2024-03-23T12:12:13;16.55;;;12.52;;
23171;SDS011;11754;42.664;23.594;2024-03-23T12:14:43;14.87;;;10.27;;
23171;SDS011;11754;42.664;23.594;2024-03-23T12:19:35;9.55;;;6.72;;
23171;SDS011;11754;42.664;23.594;2024-03-23T12:22:02;4.47;;;2.30;;
23171;SDS011;11754;42.664;23.594;2024-03-23T12:24:28;2.42;;;1.63;;
23171;SDS011;11754;42.664;23.594;2024-03-23T12:26:54;3.60;;;1.30;;
23171;SDS011;11754;42.664;23.594;2024-03-23T12:29:20;6.38;;;1.98;;
23171;SDS011;11754;42.664;23.594;2024-03-23T12:31:45;4.30;;;1.60;;
23171;SDS011;11754;42.664;23.594;2024-03-23T12:34:11;2.80;;;1.50;;
23171;SDS011;11754;42.664;23.594;2024-03-23T12:36:36;3.47;;;1.40;;
23171;SDS011;11754;42.664;23.594;2024-03-23T12:39:02;5.75;;;1.30;;
23171;SDS011;11754;42.664;23.594;2024-03-23T12:41:27;2.90;;;1.40;;
23171;SDS011;11754;42.664;23.594;2024-03-23T12:43:53;4.57;;;1.50;;
23171;SDS011;11754;42.664;23.594;2024-03-23T12:46:18;8.90;;;2.93;;
23171;SDS011;11754;42.664;23.594;2024-03-23T12:48:44;6.90;;;2.65;;
23171;SDS011;11754;42.664;23.594;2024-03-23T12:51:10;4.75;;;2.67;;
23171;SDS011;11754;42.664;23.594;2024-03-23T12:53:35;6.63;;;2.58;;
23171;SDS011;11754;42.664;23.594;2024-03-23T12:56:00;4.90;;;2.67;;
23171;SDS011;11754;42.664;23.594;2024-03-23T12:58:26;5.05;;;2.40;;
23171;SDS011;11754;42.664;23.594;2024-03-23T13:00:52;5.10;;;2.27;;
23171;SDS011;11754;42.664;23.594;2024-03-23T13:03:17;5.03;;;1.50;;
23171;SDS011;11754;42.664;23.594;2024-03-23T13:05:42;4.10;;;1.40;;
23171;SDS011;11754;42.664;23.594;2024-03-23T13:08:08;4.10;;;1.67;;
23171;SDS011;11754;42.664;23.594;2024-03-23T13:10:33;7.00;;;2.65;;
23171;SDS011;11754;42.664;23.594;2024-03-23T13:12:59;4.40;;;1.80;;
23171;SDS011;11754;42.664;23.594;2024-03-23T13:15:24;5.07;;;1.45;;
23171;SDS011;11754;42.664;23.594;2024-03-23T13:17:49;2.93;;;1.60;;
23171;SDS011;11754;42.664;23.594;2024-03-23T13:20:15;7.57;;;1.60;;
23171;SDS011;11754;42.664;23.594;2024-03-23T13:22:41;5.55;;;1.40;;
23171;SDS011;11754;42.664;23.594;2024-03-23T13:25:07;4.68;;;1.33;;
23171;SDS011;11754;42.664;23.594;2024-03-23T13:27:33;5.38;;;1.70;;
23171;SDS011;11754;42.664;23.594;2024-03-23T13:29:58;3.05;;;1.70;;
23171;SDS011;11754;42.664;23.594;2024-03-23T13:32:23;3.60;;;1.88;;
23171;SDS011;11754;42.664;23.594;2024-03-23T13:34:49;5.40;;;1.83;;
23171;SDS011;11754;42.664;23.594;2024-03-23T13:37:15;11.50;;;3.08;;
23171;SDS011;11754;42.664;23.594;2024-03-23T13:39:41;5.45;;;3.35;;
23171;SDS011;11754;42.664;23.594;2024-03-23T13:42:09;5.72;;;2.65;;
23171;SDS011;11754;42.664;23.594;2024-03-23T13:44:35;5.07;;;2.10;;
23171;SDS011;11754;42.664;23.594;2024-03-23T13:47:01;4.40;;;2.50;;
23171;SDS011;11754;42.664;23.594;2024-03-23T13:49:28;5.10;;;2.88;;
23171;SDS011;11754;42.664;23.594;2024-03-23T13:51:56;6.57;;;2.88;;
23171;SDS011;11754;42.664;23.594;2024-03-23T13:54:25;4.53;;;2.30;;
23171;SDS011;11754;42.664;23.594;2024-03-23T13:56:52;5.82;;;1.92;;
23171;SDS011;11754;42.664;23.594;2024-03-23T13:59:19;4.13;;;2.40;;
23171;SDS011;11754;42.664;23.594;2024-03-23T14:01:45;7.07;;;2.35;;
23171;SDS011;11754;42.664;23.594;2024-03-23T14:04:11;4.57;;;2.63;;
23171;SDS011;11754;42.664;23.594;2024-03-23T14:06:37;5.07;;;2.30;;
23171;SDS011;11754;42.664;23.594;2024-03-23T14:09:02;5.13;;;1.80;;
23171;SDS011;11754;42.664;23.594;2024-03-23T14:11:28;7.63;;;2.00;;
23171;SDS011;11754;42.664;23.594;2024-03-23T14:13:54;4.03;;;1.90;;
23171;SDS011;11754;42.664;23.594;2024-03-23T14:16:20;3.90;;;1.73;;
23171;SDS011;11754;42.664;23.594;2024-03-23T14:18:48;4.15;;;1.90;;
23171;SDS011;11754;42.664;23.594;2024-03-23T14:21:13;6.90;;;2.00;;
23171;SDS011;11754;42.664;23.594;2024-03-23T14:23:39;7.75;;;2.05;;
23171;SDS011;11754;42.664;23.594;2024-03-23T14:26:06;4.30;;;2.28;;
23171;SDS011;11754;42.664;23.594;2024-03-23T14:28:31;3.95;;;2.20;;
23171;SDS011;11754;42.664;23.594;2024-03-23T14:30:57;4.95;;;1.75;;
23171;SDS011;11754;42.664;23.594;2024-03-23T14:33:23;5.05;;;1.63;;
23171;SDS011;11754;42.664;23.594;2024-03-23T14:35:55;4.68;;;1.65;;
23171;SDS011;11754;42.664;23.594;2024-03-23T14:38:22;6.93;;;1.80;;
23171;SDS011;11754;42.664;23.594;2024-03-23T14:40:47;5.30;;;1.70;;
23171;SDS011;11754;42.664;23.594;2024-03-23T14:43:13;6.60;;;1.73;;
23171;SDS011;11754;42.664;23.594;2024-03-23T14:48:34;4.95;;;1.58;;
23171;SDS011;11754;42.664;23.594;2024-03-23T14:51:00;5.90;;;1.92;;
23171;SDS011;11754;42.664;23.594;2024-03-23T14:53:26;5.22;;;1.70;;
23171;SDS011;11754;42.664;23.594;2024-03-23T14:55:55;15.98;;;2.45;;
23171;SDS011;11754;42.664;23.594;2024-03-23T14:58:21;12.32;;;2.15;;
23171;SDS011;11754;42.664;23.594;2024-03-23T15:00:48;19.40;;;17.30;;
23171;SDS011;11754;42.664;23.594;2024-03-23T15:03:14;5.00;;;3.42;;
23171;SDS011;11754;42.664;23.594;2024-03-23T15:05:40;6.30;;;1.50;;
23171;SDS011;11754;42.664;23.594;2024-03-23T15:08:06;5.07;;;3.83;;
23171;SDS011;11754;42.664;23.594;2024-03-23T15:10:34;20.00;;;13.70;;
23171;SDS011;11754;42.664;23.594;2024-03-23T15:12:59;5.63;;;2.78;;
23171;SDS011;11754;42.664;23.594;2024-03-23T15:15:25;4.20;;;1.65;;
23171;SDS011;11754;42.664;23.594;2024-03-23T15:17:50;6.90;;;2.15;;
23171;SDS011;11754;42.664;23.594;2024-03-23T15:20:16;15.82;;;14.20;;
23171;SDS011;11754;42.664;23.594;2024-03-23T15:22:41;12.98;;;4.43;;
23171;SDS011;11754;42.664;23.594;2024-03-23T15:25:07;5.95;;;2.63;;
23171;SDS011;11754;42.664;23.594;2024-03-23T15:27:33;10.23;;;1.85;;
23171;SDS011;11754;42.664;23.594;2024-03-23T15:29:59;4.85;;;1.70;;
23171;SDS011;11754;42.664;23.594;2024-03-23T15:32:24;4.00;;;1.98;;
23171;SDS011;11754;42.664;23.594;2024-03-23T15:34:50;3.95;;;1.92;;
23171;SDS011;11754;42.664;23.594;2024-03-23T15:37:15;2.90;;;1.50;;